Time;durP1;ratioP1;P1;durP2;ratioP2;P2;SDS_P1;SDS_P2;PMS_P1;PMS_P2;Temp;Humidity;BMP_temperature;BMP_pressure;BME280_temperature;BME280_humidity;BME280_pressure;Samples;Min_cycle;Max_cycle;Signal;HPM_P1;HPM_P2
2023/09/03 00:01:44;;;;;;;10.77;8.00;;;;;;;;;;5091776;28;20048;-79
2023/09/03 00:04:11;;;;;;;10.13;8.45;;;;;;;;;;5095472;28;20048;-80
2023/09/03 00:06:38;;;;;;;10.68;8.40;;;;;;;;;;5095747;28;20048;-80
2023/09/03 00:09:06;;;;;;;10.95;8.43;;;;;;;;;;5092598;28;20509;-80
2023/09/03 00:11:33;;;;;;;15.18;11.68;;;;;;;;;;5096290;28;20474;-80
2023/09/03 00:14:00;;;;;;;13.48;9.90;;;;;;;;;;5087450;28;20064;-80
2023/09/03 00:16:27;;;;;;;10.35;8.65;;;;;;;;;;5088356;28;20414;-80
2023/09/03 00:18:54;;;;;;;9.80;7.72;;;;;;;;;;5090881;28;20044;-80
2023/09/03 00:21:20;;;;;;;11.15;7.88;;;;;;;;;;5091829;28;20161;-79
2023/09/03 00:23:47;;;;;;;10.07;8.45;;;;;;;;;;5090276;28;20048;-78
2023/09/03 00:26:21;;;;;;;10.70;8.27;;;;;;;;;;5095185;28;20451;-79
2023/09/03 00:28:47;;;;;;;11.70;8.50;;;;;;;;;;5095026;28;20134;-79
2023/09/03 00:31:14;;;;;;;11.20;7.13;;;;;;;;;;5091299;28;20046;-79
2023/09/03 00:33:40;;;;;;;9.27;6.85;;;;;;;;;;5094821;28;20506;-80
2023/09/03 00:36:09;;;;;;;9.38;7.30;;;;;;;;;;5100139;28;20071;-80
2023/09/03 00:38:36;;;;;;;9.70;7.55;;;;;;;;;;5099028;28;20044;-80
2023/09/03 00:41:04;;;;;;;9.02;6.95;;;;;;;;;;5106589;28;22019;-87
2023/09/03 00:43:32;;;;;;;9.93;7.72;;;;;;;;;;5099156;28;20052;-81
2023/09/03 00:46:02;;;;;;;11.15;7.35;;;;;;;;;;5100136;28;20044;-82
2023/09/03 00:48:30;;;;;;;10.37;7.47;;;;;;;;;;5108151;28;20048;-80
2023/09/03 00:50:59;;;;;;;9.23;7.28;;;;;;;;;;5100721;28;20072;-80
2023/09/03 00:53:26;;;;;;;10.32;7.85;;;;;;;;;;5088297;28;20067;-81
2023/09/03 00:55:54;;;;;;;9.88;7.00;;;;;;;;;;5100840;28;20054;-80
2023/09/03 00:58:21;;;;;;;9.75;7.10;;;;;;;;;;5099902;28;20047;-79
2023/09/03 01:00:49;;;;;;;16.30;10.07;;;;;;;;;;5098980;28;20045;-81
2023/09/03 01:03:16;;;;;;;24.98;14.35;;;;;;;;;;5093007;28;20502;-79
2023/09/03 01:05:43;;;;;;;10.70;7.40;;;;;;;;;;5099384;28;20047;-82
2023/09/03 01:08:10;;;;;;;13.10;9.23;;;;;;;;;;5102850;28;20040;-80
2023/09/03 01:10:40;;;;;;;11.65;8.52;;;;;;;;;;5097239;28;20060;-80
2023/09/03 01:13:16;;;;;;;11.77;8.52;;;;;;;;;;5099224;28;20047;-80
2023/09/03 01:15:48;;;;;;;9.75;7.70;;;;;;;;;;5096534;28;20540;-80
2023/09/03 01:18:19;;;;;;;11.25;7.80;;;;;;;;;;5095382;28;20083;-80
2023/09/03 01:21:02;;;;;;;9.00;7.38;;;;;;;;;;5099592;28;20048;-81
2023/09/03 01:23:41;;;;;;;9.52;7.32;;;;;;;;;;5099316;28;20461;-81
2023/09/03 01:26:37;;;;;;;11.60;8.50;;;;;;;;;;5096602;28;20048;-76
2023/09/03 01:29:06;;;;;;;10.35;7.68;;;;;;;;;;5097190;28;20040;-81
2023/09/03 01:31:36;;;;;;;11.43;8.18;;;;;;;;;;5093924;28;20044;-81
2023/09/03 01:34:05;;;;;;;11.25;7.97;;;;;;;;;;5097355;28;20075;-79
2023/09/03 01:36:32;;;;;;;10.70;7.55;;;;;;;;;;5098187;28;20040;-78
2023/09/03 01:39:02;;;;;;;10.43;6.85;;;;;;;;;;5098044;28;20046;-80
2023/09/03 01:41:30;;;;;;;8.93;6.32;;;;;;;;;;5099080;28;20052;-80
2023/09/03 01:43:57;;;;;;;8.57;5.78;;;;;;;;;;5098981;28;20044;-80
2023/09/03 01:46:34;;;;;;;7.97;6.07;;;;;;;;;;5098891;28;20048;-81
2023/09/03 01:49:06;;;;;;;11.13;6.60;;;;;;;;;;5098438;28;20130;-80
2023/09/03 01:51:38;;;;;;;8.45;6.22;;;;;;;;;;5098909;28;20070;-80
2023/09/03 01:54:11;;;;;;;9.52;6.32;;;;;;;;;;5093761;28;20139;-80
2023/09/03 01:56:43;;;;;;;9.88;6.63;;;;;;;;;;5093228;28;20044;-79
2023/09/03 01:59:17;;;;;;;8.32;5.93;;;;;;;;;;5096555;28;20059;-80
2023/09/03 02:01:46;;;;;;;9.25;6.68;;;;;;;;;;5097474;28;20051;-80
2023/09/03 02:04:12;;;;;;;6.88;5.50;;;;;;;;;;5096619;28;20048;-79
2023/09/03 02:06:39;;;;;;;7.15;5.47;;;;;;;;;;5095507;28;20050;-80
2023/09/03 02:09:06;;;;;;;8.70;6.30;;;;;;;;;;5095928;28;20044;-78
2023/09/03 02:11:32;;;;;;;8.27;6.65;;;;;;;;;;5094925;28;20048;-80
2023/09/03 02:13:59;;;;;;;7.72;5.22;;;;;;;;;;5093945;28;20054;-80
2023/09/03 02:16:25;;;;;;;7.60;5.32;;;;;;;;;;5091665;28;20054;-81
2023/09/03 02:18:53;;;;;;;8.05;5.05;;;;;;;;;;5091785;28;20040;-80
2023/09/03 02:21:20;;;;;;;7.88;5.68;;;;;;;;;;5097815;28;20052;-81
2023/09/03 02:23:46;;;;;;;7.03;5.43;;;;;;;;;;5098635;28;20054;-80
2023/09/03 02:26:13;;;;;;;8.60;6.35;;;;;;;;;;5098609;28;20044;-80
2023/09/03 02:28:40;;;;;;;7.80;5.70;;;;;;;;;;5098820;28;20048;-80
2023/09/03 02:31:07;;;;;;;7.55;5.78;;;;;;;;;;5099658;28;20142;-80
2023/09/03 02:33:33;;;;;;;7.82;5.55;;;;;;;;;;5098798;28;20048;-81
2023/09/03 02:36:01;;;;;;;8.25;5.88;;;;;;;;;;5098816;28;20072;-79
2023/09/03 02:38:28;;;;;;;6.15;4.70;;;;;;;;;;5098797;28;20050;-80
2023/09/03 02:40:54;;;;;;;7.55;5.22;;;;;;;;;;5097206;28;20044;-80
2023/09/03 02:43:21;;;;;;;7.07;5.50;;;;;;;;;;5097243;28;20060;-82
2023/09/03 02:45:47;;;;;;;6.43;4.72;;;;;;;;;;5094884;28;20048;-81
2023/09/03 02:48:14;;;;;;;5.80;4.55;;;;;;;;;;5090283;28;20048;-81
2023/09/03 02:50:40;;;;;;;5.63;4.53;;;;;;;;;;5097705;28;20048;-80
2023/09/03 02:53:08;;;;;;;6.20;4.22;;;;;;;;;;5099045;28;20054;-79
2023/09/03 02:55:35;;;;;;;6.22;4.15;;;;;;;;;;5097796;28;20071;-80
2023/09/03 02:58:01;;;;;;;8.18;4.13;;;;;;;;;;5097433;28;20044;-81
2023/09/03 03:00:28;;;;;;;6.82;4.25;;;;;;;;;;5097378;28;20039;-78
2023/09/03 03:02:55;;;;;;;6.68;4.10;;;;;;;;;;5097137;28;20055;-79
2023/09/03 03:05:22;;;;;;;5.88;3.90;;;;;;;;;;5097354;28;20130;-81
2023/09/03 03:07:48;;;;;;;5.93;4.28;;;;;;;;;;5097297;28;20048;-80
2023/09/03 03:10:16;;;;;;;5.95;4.28;;;;;;;;;;5098685;28;20048;-79
2023/09/03 03:12:44;;;;;;;5.97;4.05;;;;;;;;;;5097830;28;20127;-81
2023/09/03 03:15:11;;;;;;;6.32;3.95;;;;;;;;;;5097516;28;20561;-79
2023/09/03 03:17:37;;;;;;;6.95;4.22;;;;;;;;;;5096628;28;20047;-80
2023/09/03 03:20:04;;;;;;;6.68;4.00;;;;;;;;;;5095892;28;20368;-78
2023/09/03 03:22:31;;;;;;;5.55;3.83;;;;;;;;;;5096962;28;20054;-81
2023/09/03 03:24:57;;;;;;;5.90;4.07;;;;;;;;;;5101774;28;20051;-79
2023/09/03 03:27:25;;;;;;;6.78;4.03;;;;;;;;;;5101613;28;20040;-79
2023/09/03 03:29:53;;;;;;;6.53;3.88;;;;;;;;;;5102885;28;20050;-78
2023/09/03 03:32:19;;;;;;;6.50;3.97;;;;;;;;;;5101466;28;20058;-79
2023/09/03 03:34:46;;;;;;;6.47;3.80;;;;;;;;;;5102459;28;20093;-80
2023/09/03 03:37:12;;;;;;;5.80;3.53;;;;;;;;;;5102219;28;20050;-79
2023/09/03 03:39:39;;;;;;;6.03;3.70;;;;;;;;;;5108197;22;20340;-77
2023/09/03 03:42:06;;;;;;;6.05;3.72;;;;;;;;;;5075845;28;20045;-77
2023/09/03 03:44:34;;;;;;;6.35;3.85;;;;;;;;;;5075515;28;20051;-78
2023/09/03 03:47:00;;;;;;;5.40;3.33;;;;;;;;;;5075427;28;20051;-78
2023/09/03 03:49:27;;;;;;;5.55;3.33;;;;;;;;;;5073589;28;20415;-78
2023/09/03 03:51:53;;;;;;;4.55;3.10;;;;;;;;;;5074903;28;20395;-78
2023/09/03 03:54:20;;;;;;;6.43;4.07;;;;;;;;;;5081760;28;20127;-79
2023/09/03 03:56:46;;;;;;;6.55;3.42;;;;;;;;;;5072875;28;20036;-78
2023/09/03 03:59:13;;;;;;;6.07;3.58;;;;;;;;;;5062423;28;20047;-78
2023/09/03 04:01:41;;;;;;;5.75;3.63;;;;;;;;;;5067796;28;20414;-78
2023/09/03 04:04:07;;;;;;;6.30;4.00;;;;;;;;;;5073870;28;20210;-78
2023/09/03 04:06:34;;;;;;;5.63;3.97;;;;;;;;;;5061866;28;20044;-78
2023/09/03 04:09:01;;;;;;;6.47;4.10;;;;;;;;;;5076152;28;20048;-78
2023/09/03 04:11:27;;;;;;;6.32;4.25;;;;;;;;;;5059950;28;20385;-78
2023/09/03 04:13:54;;;;;;;5.95;4.35;;;;;;;;;;5063132;28;20069;-79
2023/09/03 04:16:23;;;;;;;6.00;4.88;;;;;;;;;;5065626;28;20502;-78
2023/09/03 04:18:51;;;;;;;6.63;4.15;;;;;;;;;;5061363;28;20529;-78
2023/09/03 04:21:18;;;;;;;5.25;3.75;;;;;;;;;;5054129;28;20045;-78
2023/09/03 04:23:44;;;;;;;5.57;4.10;;;;;;;;;;5058945;28;20135;-78
2023/09/03 04:26:11;;;;;;;5.10;3.80;;;;;;;;;;5065217;28;20060;-78
2023/09/03 04:28:38;;;;;;;4.80;3.20;;;;;;;;;;5072931;28;20056;-78
2023/09/03 04:31:07;;;;;;;5.22;3.20;;;;;;;;;;5073586;28;20047;-78
2023/09/03 04:33:35;;;;;;;5.22;3.78;;;;;;;;;;5073583;28;20048;-79
2023/09/03 04:36:03;;;;;;;6.90;3.40;;;;;;;;;;5073901;28;20040;-78
2023/09/03 04:38:30;;;;;;;5.55;3.30;;;;;;;;;;5074982;28;20043;-78
2023/09/03 04:40:58;;;;;;;5.63;3.65;;;;;;;;;;5074536;28;20052;-78
2023/09/03 04:43:24;;;;;;;5.85;3.58;;;;;;;;;;5076232;28;20052;-78
2023/09/03 04:45:53;;;;;;;5.88;3.60;;;;;;;;;;5077636;28;20072;-78
2023/09/03 04:48:21;;;;;;;6.40;3.70;;;;;;;;;;5077483;28;20044;-78
2023/09/03 04:50:48;;;;;;;4.93;3.25;;;;;;;;;;5076779;28;20052;-78
2023/09/03 04:53:16;;;;;;;6.88;3.40;;;;;;;;;;5065077;28;20049;-78
2023/09/03 04:55:43;;;;;;;5.50;3.85;;;;;;;;;;5057722;28;20527;-78
2023/09/03 04:58:09;;;;;;;6.95;4.03;;;;;;;;;;5058479;28;20041;-78
2023/09/03 05:00:36;;;;;;;5.38;3.30;;;;;;;;;;5077564;28;20049;-78
2023/09/03 05:03:04;;;;;;;5.47;3.42;;;;;;;;;;5078048;28;20044;-78
2023/09/03 05:05:31;;;;;;;6.47;4.00;;;;;;;;;;5077469;28;20051;-78
2023/09/03 05:07:57;;;;;;;6.95;3.58;;;;;;;;;;5077345;28;20055;-78
2023/09/03 05:10:25;;;;;;;5.13;3.72;;;;;;;;;;5076596;28;20422;-78
2023/09/03 05:12:52;;;;;;;5.57;4.00;;;;;;;;;;5077202;28;20051;-78
2023/09/03 05:15:18;;;;;;;5.95;3.80;;;;;;;;;;5069623;28;20044;-78
2023/09/03 05:17:45;;;;;;;6.55;3.67;;;;;;;;;;5068118;28;20048;-78
2023/09/03 05:20:11;;;;;;;5.80;3.55;;;;;;;;;;5075061;28;20422;-79
2023/09/03 05:22:38;;;;;;;5.38;3.22;;;;;;;;;;5076230;28;20044;-78
2023/09/03 05:25:05;;;;;;;6.65;3.97;;;;;;;;;;5076957;28;20053;-78
2023/09/03 05:27:33;;;;;;;5.65;3.58;;;;;;;;;;5076416;28;20108;-78
2023/09/03 05:30:00;;;;;;;5.93;3.25;;;;;;;;;;5076641;28;20045;-78
2023/09/03 05:32:26;;;;;;;5.65;3.67;;;;;;;;;;5077434;28;20044;-78
2023/09/03 05:34:53;;;;;;;5.40;3.75;;;;;;;;;;5076919;28;20495;-79
2023/09/03 05:37:19;;;;;;;5.20;3.58;;;;;;;;;;5080468;28;20070;-79
2023/09/03 05:39:46;;;;;;;5.60;3.83;;;;;;;;;;5080936;28;20056;-79
2023/09/03 05:42:12;;;;;;;6.40;3.70;;;;;;;;;;5074575;28;20041;-79
2023/09/03 05:44:40;;;;;;;5.65;3.45;;;;;;;;;;5078006;28;20049;-79
2023/09/03 05:47:07;;;;;;;5.53;3.72;;;;;;;;;;5079420;28;20055;-78
2023/09/03 05:49:35;;;;;;;5.93;4.22;;;;;;;;;;5080414;28;20037;-78
2023/09/03 05:52:01;;;;;;;7.80;3.60;;;;;;;;;;5080831;28;20044;-79
2023/09/03 05:54:28;;;;;;;5.50;3.78;;;;;;;;;;5077251;28;20045;-79
2023/09/03 05:56:54;;;;;;;6.70;4.20;;;;;;;;;;5075844;28;20044;-79
2023/09/03 05:59:21;;;;;;;6.10;3.95;;;;;;;;;;5081401;28;20422;-79
2023/09/03 06:01:49;;;;;;;4.97;3.40;;;;;;;;;;5081436;28;20049;-79
2023/09/03 06:04:16;;;;;;;5.35;3.65;;;;;;;;;;5073524;28;20041;-79
2023/09/03 06:06:43;;;;;;;5.50;3.88;;;;;;;;;;5072031;28;20043;-78
2023/09/03 06:09:10;;;;;;;6.68;4.50;;;;;;;;;;5075840;28;20044;-79
2023/09/03 06:11:37;;;;;;;6.07;4.60;;;;;;;;;;5086847;28;20104;-78
2023/09/03 06:14:03;;;;;;;6.50;4.40;;;;;;;;;;5088356;28;20110;-79
2023/09/03 06:16:30;;;;;;;5.85;4.28;;;;;;;;;;5087660;28;20055;-78
2023/09/03 06:18:58;;;;;;;6.80;4.75;;;;;;;;;;5070067;28;20051;-78
2023/09/03 06:21:26;;;;;;;6.35;4.38;;;;;;;;;;5071027;28;20055;-79
2023/09/03 06:23:53;;;;;;;6.25;4.68;;;;;;;;;;5083382;28;20079;-79
2023/09/03 06:26:20;;;;;;;6.55;4.43;;;;;;;;;;5082061;28;20049;-79
2023/09/03 06:28:46;;;;;;;7.88;5.00;;;;;;;;;;5081385;28;20053;-79
2023/09/03 06:31:13;;;;;;;6.47;4.90;;;;;;;;;;5081771;28;20045;-79
2023/09/03 06:33:40;;;;;;;7.55;4.70;;;;;;;;;;5082969;28;20046;-79
2023/09/03 06:36:08;;;;;;;6.35;4.80;;;;;;;;;;5073560;28;20145;-78
2023/09/03 06:38:34;;;;;;;7.65;4.93;;;;;;;;;;5082924;28;20044;-78
2023/09/03 06:41:01;;;;;;;5.75;4.72;;;;;;;;;;5083749;28;20048;-79
2023/09/03 06:43:27;;;;;;;5.90;4.35;;;;;;;;;;5082591;28;20103;-79
2023/09/03 06:45:54;;;;;;;7.18;4.55;;;;;;;;;;5084078;28;20051;-78
2023/09/03 06:48:20;;;;;;;6.07;4.82;;;;;;;;;;5083612;28;20057;-79
2023/09/03 06:50:49;;;;;;;7.25;5.10;;;;;;;;;;5082472;28;20048;-78
2023/09/03 06:53:17;;;;;;;7.18;5.30;;;;;;;;;;5082258;28;20055;-79
2023/09/03 06:55:44;;;;;;;7.38;5.03;;;;;;;;;;5083462;28;20041;-78
2023/09/03 06:58:11;;;;;;;6.90;5.00;;;;;;;;;;5079878;28;20045;-79
2023/09/03 07:00:37;;;;;;;7.72;5.38;;;;;;;;;;5078997;28;20040;-78
2023/09/03 07:03:04;;;;;;;7.07;5.10;;;;;;;;;;5083757;28;20048;-79
2023/09/03 07:05:31;;;;;;;8.50;5.30;;;;;;;;;;5083829;28;20108;-79
2023/09/03 07:07:57;;;;;;;8.32;6.07;;;;;;;;;;5084175;28;20045;-79
2023/09/03 07:10:25;;;;;;;7.13;5.63;;;;;;;;;;5084001;28;20411;-79
2023/09/03 07:12:52;;;;;;;7.20;5.13;;;;;;;;;;5084660;28;20104;-79
2023/09/03 07:15:18;;;;;;;7.93;5.45;;;;;;;;;;5084339;28;20044;-78
2023/09/03 07:17:45;;;;;;;7.75;5.05;;;;;;;;;;5086437;28;20039;-79
2023/09/03 07:20:12;;;;;;;8.15;5.05;;;;;;;;;;5088219;28;20051;-79
2023/09/03 07:22:40;;;;;;;7.18;4.55;;;;;;;;;;5088154;28;20075;-80
2023/09/03 07:25:08;;;;;;;6.32;4.57;;;;;;;;;;5087656;28;20143;-79
2023/09/03 07:27:38;;;;;;;7.75;5.38;;;;;;;;;;5081502;28;20430;-79
2023/09/03 07:30:06;;;;;;;7.68;5.40;;;;;;;;;;5080760;28;20064;-79
2023/09/03 07:32:32;;;;;;;6.72;4.85;;;;;;;;;;5079207;28;20044;-79
2023/09/03 07:34:59;;;;;;;6.32;4.22;;;;;;;;;;5077266;28;20045;-79
2023/09/03 07:37:25;;;;;;;11.48;5.20;;;;;;;;;;5081969;28;20040;-78
2023/09/03 07:39:52;;;;;;;6.93;4.60;;;;;;;;;;5080922;28;20129;-79
2023/09/03 07:42:18;;;;;;;6.03;4.88;;;;;;;;;;5080364;28;20116;-78
2023/09/03 07:44:46;;;;;;;6.35;4.50;;;;;;;;;;5080383;28;20129;-79
2023/09/03 07:47:13;;;;;;;5.38;4.07;;;;;;;;;;5076782;28;20045;-79
2023/09/03 07:49:39;;;;;;;6.10;4.72;;;;;;;;;;5083300;28;20169;-79
2023/09/03 07:52:06;;;;;;;5.50;4.38;;;;;;;;;;5078045;28;20132;-79
2023/09/03 07:54:33;;;;;;;5.80;4.15;;;;;;;;;;5081581;28;20502;-79
2023/09/03 07:56:59;;;;;;;6.47;4.13;;;;;;;;;;5083360;28;20060;-79
2023/09/03 07:59:26;;;;;;;6.70;4.00;;;;;;;;;;5076320;28;20065;-79
2023/09/03 08:01:54;;;;;;;5.55;4.32;;;;;;;;;;5079795;28;20483;-79
2023/09/03 08:04:22;;;;;;;5.88;3.92;;;;;;;;;;5077321;28;20056;-79
2023/09/03 08:06:48;;;;;;;5.85;3.85;;;;;;;;;;5077261;28;20117;-79
2023/09/03 08:09:15;;;;;;;6.30;3.60;;;;;;;;;;5079549;28;20079;-79
2023/09/03 08:11:41;;;;;;;7.25;3.63;;;;;;;;;;5076139;28;20060;-79
2023/09/03 08:14:08;;;;;;;5.43;4.13;;;;;;;;;;5080584;28;20051;-80
2023/09/03 08:16:34;;;;;;;4.32;2.90;;;;;;;;;;5068529;28;20045;-79
2023/09/03 08:19:02;;;;;;;4.72;2.97;;;;;;;;;;5081480;28;20108;-79
2023/09/03 08:21:29;;;;;;;4.72;3.05;;;;;;;;;;5079097;28;20055;-78
2023/09/03 08:23:55;;;;;;;4.35;2.65;;;;;;;;;;5078817;28;20044;-79
2023/09/03 08:26:22;;;;;;;5.68;2.90;;;;;;;;;;5081924;28;20047;-79
2023/09/03 08:28:48;;;;;;;4.53;2.60;;;;;;;;;;5074135;28;20041;-79
2023/09/03 08:31:15;;;;;;;3.90;2.58;;;;;;;;;;5077657;28;20037;-79
2023/09/03 08:33:41;;;;;;;5.10;2.47;;;;;;;;;;5080231;28;20047;-78
2023/09/03 08:36:09;;;;;;;4.20;2.55;;;;;;;;;;5079994;28;20054;-79
2023/09/03 08:38:36;;;;;;;4.35;2.60;;;;;;;;;;5074310;28;20070;-78
2023/09/03 08:41:03;;;;;;;6.53;2.42;;;;;;;;;;5078352;28;20052;-79
2023/09/03 08:43:31;;;;;;;4.43;2.72;;;;;;;;;;5079033;28;20045;-79
2023/09/03 08:46:02;;;;;;;4.57;2.60;;;;;;;;;;5076779;28;20057;-80
2023/09/03 08:48:29;;;;;;;3.90;2.15;;;;;;;;;;5076944;28;20045;-79
2023/09/03 08:50:56;;;;;;;3.45;2.00;;;;;;;;;;5079177;28;20039;-79
2023/09/03 08:53:25;;;;;;;3.85;2.10;;;;;;;;;;5085360;28;20041;-80
2023/09/03 08:55:52;;;;;;;4.35;1.88;;;;;;;;;;5077338;28;20045;-79
2023/09/03 08:58:18;;;;;;;4.07;2.45;;;;;;;;;;5073354;28;20053;-80
2023/09/03 09:00:45;;;;;;;4.22;2.30;;;;;;;;;;5070040;28;20112;-79
2023/09/03 09:03:15;;;;;;;3.70;2.38;;;;;;;;;;5064793;28;20051;-78
2023/09/03 09:05:42;;;;;;;4.63;1.90;;;;;;;;;;5069656;28;20045;-79
2023/09/03 09:08:09;;;;;;;3.72;1.60;;;;;;;;;;5091860;28;20045;-79
2023/09/03 09:10:43;;;;;;;3.85;1.92;;;;;;;;;;5095639;28;20054;-79
2023/09/03 09:13:12;;;;;;;2.65;1.70;;;;;;;;;;5086680;28;20100;-80
2023/09/03 09:15:42;;;;;;;3.90;1.85;;;;;;;;;;5092364;28;20064;-81
2023/09/03 09:18:08;;;;;;;;;;;;;;;;;;5086455;28;20060;-80
2023/09/03 09:20:37;;;;;;;3.30;1.80;;;;;;;;;;5089750;28;19931;-79
2023/09/03 09:23:05;;;;;;;3.97;1.90;;;;;;;;;;5083907;28;20144;-78
2023/09/03 09:25:37;;;;;;;3.42;1.88;;;;;;;;;;5080269;28;20063;-79
2023/09/03 09:28:13;;;;;;;3.30;1.85;;;;;;;;;;5082624;28;20495;-80
2023/09/03 09:30:53;;;;;;;4.05;1.80;;;;;;;;;;5085093;28;20058;-80
2023/09/03 09:33:20;;;;;;;4.03;2.20;;;;;;;;;;5064573;28;20060;-79
2023/09/03 09:35:47;;;;;;;3.42;1.95;;;;;;;;;;5063395;28;20128;-80
2023/09/03 09:38:14;;;;;;;2.88;1.75;;;;;;;;;;5064115;28;20045;-80
2023/09/03 09:40:42;;;;;;;4.13;1.58;;;;;;;;;;5115277;22;20036;-84
2023/09/03 09:43:10;;;;;;;3.85;2.00;;;;;;;;;;5131261;28;20107;-85
2023/09/03 09:45:46;;;;;;;3.85;1.60;;;;;;;;;;5132227;28;20043;-83
2023/09/03 09:48:12;;;;;;;2.95;2.00;;;;;;;;;;5129898;28;20077;-84
2023/09/03 09:50:41;;;;;;;3.55;1.80;;;;;;;;;;5116590;28;20112;-82
2023/09/03 09:53:20;;;;;;;3.10;1.85;;;;;;;;;;5117427;28;20081;-83
2023/09/03 09:55:56;;;;;;;3.63;1.90;;;;;;;;;;5103014;28;20047;-82
2023/09/03 09:58:24;;;;;;;3.05;1.70;;;;;;;;;;5113814;28;20139;-81
2023/09/03 10:00:53;;;;;;;3.10;1.70;;;;;;;;;;5101255;28;20051;-83
2023/09/03 10:03:20;;;;;;;2.58;1.60;;;;;;;;;;5082515;28;20036;-84
2023/09/03 10:05:49;;;;;;;6.40;3.13;;;;;;;;;;5105682;28;20054;-85
2023/09/03 10:08:17;;;;;;;4.50;1.83;;;;;;;;;;5113469;28;20131;-84
2023/09/03 10:10:44;;;;;;;3.70;2.13;;;;;;;;;;5103001;28;20108;-79
2023/09/03 10:13:12;;;;;;;18.65;9.30;;;;;;;;;;5103631;28;20062;-84
2023/09/03 10:15:41;;;;;;;4.25;2.70;;;;;;;;;;5110711;28;20040;-77
2023/09/03 10:18:09;;;;;;;20.27;10.80;;;;;;;;;;5098588;28;20813;-83
2023/09/03 10:20:37;;;;;;;10.43;4.65;;;;;;;;;;5100323;28;20048;-84
2023/09/03 10:23:04;;;;;;;12.40;6.85;;;;;;;;;;5113295;27;20320;-81
2023/09/03 10:25:34;;;;;;;14.55;7.47;;;;;;;;;;5086569;28;20052;-78
2023/09/03 10:28:05;;;;;;;4.32;2.45;;;;;;;;;;5103017;28;20055;-78
2023/09/03 10:30:40;;;;;;;5.00;2.30;;;;;;;;;;5098531;28;20040;-80
2023/09/03 10:33:09;;;;;;;3.35;2.20;;;;;;;;;;5095775;28;20040;-80
2023/09/03 10:35:35;;;;;;;3.83;2.30;;;;;;;;;;5106255;28;20413;-82
2023/09/03 10:38:02;;;;;;;4.97;2.30;;;;;;;;;;5098500;28;20066;-80
2023/09/03 10:40:30;;;;;;;5.30;3.17;;;;;;;;;;5106852;28;20074;-80
2023/09/03 10:43:24;;;;;;;3.20;1.90;;;;;;;;;;5083707;28;20071;-81
2023/09/03 10:46:05;;;;;;;4.57;2.03;;;;;;;;;;5100164;28;20046;-81
2023/09/03 10:48:34;;;;;;;2.88;1.88;;;;;;;;;;5109520;28;20055;-80
2023/09/03 10:51:01;;;;;;;3.17;2.00;;;;;;;;;;5098628;28;20076;-80
2023/09/03 10:53:35;;;;;;;3.88;2.17;;;;;;;;;;5099822;28;20051;-80
2023/09/03 10:56:13;;;;;;;3.42;1.77;;;;;;;;;;5084229;28;20049;-80
2023/09/03 10:58:58;;;;;;;3.42;1.77;;;;;;;;;;5078399;28;20090;-79
2023/09/03 11:01:30;;;;;;;3.50;2.17;;;;;;;;;;5081933;28;20062;-79
2023/09/03 11:03:57;;;;;;;5.85;2.38;;;;;;;;;;5094909;28;20198;-78
2023/09/03 11:06:25;;;;;;;3.90;2.33;;;;;;;;;;5083892;28;20051;-79
2023/09/03 11:09:22;;;;;;;3.80;2.08;;;;;;;;;;5085519;28;20399;-79
2023/09/03 11:11:49;;;;;;;5.03;2.28;;;;;;;;;;5086009;28;20044;-79
2023/09/03 11:14:15;;;;;;;3.20;2.20;;;;;;;;;;5089901;28;20062;-79
2023/09/03 11:16:43;;;;;;;3.30;1.98;;;;;;;;;;5082655;28;20041;-79
2023/09/03 11:19:10;;;;;;;4.80;2.17;;;;;;;;;;5085996;28;20050;-80
2023/09/03 11:21:37;;;;;;;3.33;2.50;;;;;;;;;;5083689;28;20433;-79
2023/09/03 11:24:05;;;;;;;3.58;2.28;;;;;;;;;;5087961;28;20504;-79
2023/09/03 11:26:33;;;;;;;4.00;2.22;;;;;;;;;;5081961;28;20072;-79
2023/09/03 11:29:01;;;;;;;3.88;2.17;;;;;;;;;;5081952;28;20045;-79
2023/09/03 11:31:28;;;;;;;3.63;2.17;;;;;;;;;;5080460;28;20040;-80
2023/09/03 11:33:56;;;;;;;4.28;3.25;;;;;;;;;;5092942;28;20404;-79
2023/09/03 11:36:24;;;;;;;5.35;2.50;;;;;;;;;;5082374;28;20503;-79
2023/09/03 11:38:51;;;;;;;4.22;2.60;;;;;;;;;;5081956;28;20046;-79
2023/09/03 11:41:19;;;;;;;3.50;2.30;;;;;;;;;;5080415;28;20738;-79
2023/09/03 11:43:46;;;;;;;3.58;1.98;;;;;;;;;;5087390;28;20048;-80
2023/09/03 11:46:13;;;;;;;3.60;2.30;;;;;;;;;;5081109;28;20408;-80
2023/09/03 11:48:40;;;;;;;3.00;1.98;;;;;;;;;;5079388;28;20048;-79
2023/09/03 11:51:09;;;;;;;3.22;2.00;;;;;;;;;;5080901;28;20044;-79
2023/09/03 11:53:40;;;;;;;3.42;2.35;;;;;;;;;;5087490;28;20032;-80
2023/09/03 11:56:08;;;;;;;5.15;2.30;;;;;;;;;;5087633;28;20116;-80
2023/09/03 11:58:34;;;;;;;3.35;1.70;;;;;;;;;;5088369;28;20498;-79
2023/09/03 12:01:01;;;;;;;3.13;1.90;;;;;;;;;;5088009;28;20514;-80
2023/09/03 12:03:28;;;;;;;3.00;1.80;;;;;;;;;;5089068;28;20054;-77
2023/09/03 12:05:55;;;;;;;3.53;1.80;;;;;;;;;;5086084;28;20046;-81
2023/09/03 12:08:23;;;;;;;2.85;1.60;;;;;;;;;;5088694;28;20040;-78
2023/09/03 12:10:51;;;;;;;2.50;1.40;;;;;;;;;;5086602;28;20618;-79
2023/09/03 12:13:34;;;;;;;3.95;1.83;;;;;;;;;;5090659;28;20043;-79
2023/09/03 12:16:09;;;;;;;3.15;1.60;;;;;;;;;;5089734;28;20041;-78
2023/09/03 12:18:37;;;;;;;2.90;1.73;;;;;;;;;;5090391;28;20072;-78
2023/09/03 12:21:05;;;;;;;3.13;1.42;;;;;;;;;;5084618;28;20064;-78
2023/09/03 12:23:34;;;;;;;2.58;1.50;;;;;;;;;;5082227;28;20044;-76
2023/09/03 12:26:01;;;;;;;2.97;1.70;;;;;;;;;;5087160;28;20052;-77
2023/09/03 12:28:35;;;;;;;3.83;1.65;;;;;;;;;;5084668;28;20151;-78
2023/09/03 12:31:03;;;;;;;2.35;1.40;;;;;;;;;;5090698;28;20048;-78
2023/09/03 12:33:45;;;;;;;3.70;1.40;;;;;;;;;;5084925;28;20079;-78
2023/09/03 12:36:13;;;;;;;3.65;1.40;;;;;;;;;;5083468;28;20097;-78
2023/09/03 12:38:52;;;;;;;3.65;1.92;;;;;;;;;;5088624;28;20494;-78
2023/09/03 12:41:20;;;;;;;2.70;1.45;;;;;;;;;;5084754;28;20044;-78
2023/09/03 12:43:46;;;;;;;2.95;1.98;;;;;;;;;;5080274;28;20052;-78
2023/09/03 12:46:13;;;;;;;3.72;1.75;;;;;;;;;;5084739;28;20409;-78
2023/09/03 12:48:39;;;;;;;3.60;1.90;;;;;;;;;;5108063;28;20422;-78
2023/09/03 12:51:06;;;;;;;5.82;2.05;;;;;;;;;;5106903;28;20040;-78
2023/09/03 12:53:33;;;;;;;2.78;1.50;;;;;;;;;;5086741;28;20048;-78
2023/09/03 12:56:01;;;;;;;2.53;1.40;;;;;;;;;;5083331;28;20048;-78
2023/09/03 12:58:27;;;;;;;3.08;1.70;;;;;;;;;;5076595;28;20052;-78
2023/09/03 13:00:54;;;;;;;2.78;1.50;;;;;;;;;;5092119;28;20040;-78
2023/09/03 13:03:20;;;;;;;2.33;1.55;;;;;;;;;;5089589;28;20358;-79
2023/09/03 13:05:47;;;;;;;2.53;1.38;;;;;;;;;;5082129;28;20047;-79
2023/09/03 13:08:14;;;;;;;3.28;1.70;;;;;;;;;;5085725;28;20047;-79
2023/09/03 13:10:40;;;;;;;2.53;1.70;;;;;;;;;;5081225;28;20067;-77
2023/09/03 13:13:09;;;;;;;2.88;1.55;;;;;;;;;;5086043;28;20064;-77
2023/09/03 13:15:36;;;;;;;3.03;1.80;;;;;;;;;;5093167;28;20048;-77
2023/09/03 13:18:02;;;;;;;3.70;1.90;;;;;;;;;;5090485;28;20418;-81
2023/09/03 13:20:29;;;;;;;2.75;1.65;;;;;;;;;;5097120;28;20544;-80
2023/09/03 13:22:55;;;;;;;2.45;1.60;;;;;;;;;;5098860;28;20052;-80
2023/09/03 13:25:22;;;;;;;2.75;1.70;;;;;;;;;;5105105;28;20036;-80
2023/09/03 13:27:48;;;;;;;2.28;1.58;;;;;;;;;;5085808;28;20048;-80
2023/09/03 13:30:16;;;;;;;4.80;1.98;;;;;;;;;;5085359;28;20044;-80
2023/09/03 13:32:43;;;;;;;3.20;1.85;;;;;;;;;;5084242;28;20723;-79
2023/09/03 13:35:09;;;;;;;3.47;1.30;;;;;;;;;;5092564;28;20054;-80
2023/09/03 13:37:36;;;;;;;3.55;1.70;;;;;;;;;;5099907;28;20043;-81
2023/09/03 13:40:04;;;;;;;2.22;1.40;;;;;;;;;;5052721;28;1138636;-80
2023/09/03 13:42:30;;;;;;;3.05;1.48;;;;;;;;;;5100123;28;20055;-80
2023/09/03 13:44:57;;;;;;;2.58;1.70;;;;;;;;;;5101584;28;20044;-80
2023/09/03 13:47:25;;;;;;;3.35;1.80;;;;;;;;;;5094477;28;20044;-80
2023/09/03 13:49:51;;;;;;;2.83;1.63;;;;;;;;;;5084659;28;20044;-80
2023/09/03 13:52:18;;;;;;;2.78;1.30;;;;;;;;;;5083534;28;20044;-79
2023/09/03 13:54:49;;;;;;;3.10;1.40;;;;;;;;;;5097476;28;20104;-80
2023/09/03 13:57:15;;;;;;;3.15;1.45;;;;;;;;;;5096372;28;20051;-81
2023/09/03 13:59:42;;;;;;;2.63;1.40;;;;;;;;;;5105390;28;20039;-79
2023/09/03 14:02:09;;;;;;;6.05;1.45;;;;;;;;;;5112542;28;20130;-81
2023/09/03 14:04:37;;;;;;;2.08;1.25;;;;;;;;;;5090834;28;20131;-81
2023/09/03 14:07:04;;;;;;;3.22;1.52;;;;;;;;;;5105293;28;20047;-81
2023/09/03 14:09:30;;;;;;;3.50;1.48;;;;;;;;;;5101302;28;20118;-81
2023/09/03 14:11:57;;;;;;;2.30;1.38;;;;;;;;;;5097076;28;20040;-81
2023/09/03 14:14:23;;;;;;;2.70;1.30;;;;;;;;;;5093009;28;20059;-81
2023/09/03 14:16:50;;;;;;;10.00;1.70;;;;;;;;;;5094436;28;20044;-81
2023/09/03 14:19:16;;;;;;;2.58;1.23;;;;;;;;;;5100633;28;20039;-83
2023/09/03 14:21:44;;;;;;;2.30;1.45;;;;;;;;;;5089614;28;20496;-83
2023/09/03 14:24:11;;;;;;;3.38;1.85;;;;;;;;;;5084831;28;20040;-82
2023/09/03 14:26:37;;;;;;;3.17;1.70;;;;;;;;;;5080004;28;20062;-81
2023/09/03 14:29:09;;;;;;;3.38;1.42;;;;;;;;;;5096586;28;20047;-80
2023/09/03 14:31:35;;;;;;;2.63;1.52;;;;;;;;;;5089515;28;20681;-81
2023/09/03 14:34:02;;;;;;;4.13;2.55;;;;;;;;;;5090433;28;20052;-81
2023/09/03 14:36:28;;;;;;;4.00;2.50;;;;;;;;;;5093586;28;20040;-81
2023/09/03 14:38:56;;;;;;;2.75;1.80;;;;;;;;;;5100835;28;20052;-79
2023/09/03 14:41:25;;;;;;;1.98;1.25;;;;;;;;;;5082675;28;20044;-81
2023/09/03 14:43:51;;;;;;;2.20;1.30;;;;;;;;;;5086380;28;20075;-80
2023/09/03 14:46:18;;;;;;;2.40;1.50;;;;;;;;;;5072563;28;20597;-80